Time;durP1;ratioP1;P1;durP2;ratioP2;P2;SDS_P1;SDS_P2;PMS_P1;PMS_P2;Temp;Humidity;BMP_temperature;BMP_pressure;BME280_temperature;BME280_humidity;BME280_pressure;Samples;Min_cycle;Max_cycle;Signal;HPM_P1;HPM_P2
2022/05/20 00:00:22;;;;;;;10.65;5.30;;;;;;;13.32;63.34;100147.88;5113565;27;20051;-76
2022/05/20 00:03:03;;;;;;;10.80;4.68;;;;;;;13.37;62.48;100144.00;5113248;28;20089;-75
2022/05/20 00:05:31;;;;;;;14.27;5.43;;;;;;;13.32;62.43;100141.56;5112986;27;20035;-76
2022/05/20 00:08:00;;;;;;;14.75;5.40;;;;;;;13.40;62.80;100138.38;5113235;27;20048;-75
2022/05/20 00:10:28;;;;;;;13.02;5.07;;;;;;;13.25;63.16;100143.78;5113204;27;20412;-75
2022/05/20 00:12:56;;;;;;;12.90;4.80;;;;;;;13.30;62.93;100140.78;5113187;27;20047;-76
2022/05/20 00:15:26;;;;;;;12.55;5.20;;;;;;;13.29;61.72;100142.63;5112978;28;20054;-75
2022/05/20 00:17:54;;;;;;;12.50;5.05;;;;;;;13.31;61.73;100131.69;5113100;27;20043;-76
2022/05/20 00:20:24;;;;;;;11.30;5.10;;;;;;;13.40;61.28;100130.22;5112392;27;20040;-75
2022/05/20 00:22:52;;;;;;;12.48;4.88;;;;;;;13.47;61.17;100127.06;5115082;27;20047;-75
2022/05/20 00:28:08;;;;;;;13.23;5.07;;;;;;;13.25;62.37;100126.66;5116563;28;20051;-76
2022/05/20 00:30:35;;;;;;;13.98;5.30;;;;;;;13.31;62.10;100123.53;5116715;27;20047;-75
2022/05/20 00:33:03;;;;;;;14.50;5.20;;;;;;;13.36;61.66;100120.53;5116574;27;20039;-76
2022/05/20 00:35:31;;;;;;;17.13;5.40;;;;;;;13.26;61.51;100120.25;5115998;27;20052;-76
2022/05/20 00:37:58;;;;;;;13.70;5.25;;;;;;;13.30;60.65;100119.09;5116455;27;20051;-76
2022/05/20 00:40:29;;;;;;;15.38;5.32;;;;;;;13.29;61.10;100110.09;5116360;27;20048;-75
2022/05/20 00:43:12;;;;;;;14.05;5.25;;;;;;;13.23;61.24;100110.44;5116426;28;20051;-76
2022/05/20 00:45:44;;;;;;;15.43;5.68;;;;;;;13.23;61.63;100112.31;5116561;27;20074;-75
2022/05/20 00:48:12;;;;;;;10.30;5.05;;;;;;;13.06;62.29;100107.94;5115994;27;20044;-75
2022/05/20 00:50:44;;;;;;;16.33;5.78;;;;;;;13.12;62.70;100100.31;5115999;27;20056;-76
2022/05/20 00:53:13;;;;;;;13.85;5.45;;;;;;;13.06;62.32;100107.94;5115990;27;20046;-75
2022/05/20 00:55:43;;;;;;;14.88;5.45;;;;;;;13.05;62.83;100104.34;5116421;27;20112;-75
2022/05/20 00:58:14;;;;;;;13.07;5.32;;;;;;;13.00;63.22;100103.75;5116361;27;20067;-75
2022/05/20 01:00:46;;;;;;;12.63;5.18;;;;;;;13.01;61.85;100109.09;5116659;27;20051;-76
2022/05/20 01:03:15;;;;;;;15.27;5.57;;;;;;;12.92;62.71;100111.50;5117027;27;20043;-75
2022/05/20 01:05:45;;;;;;;14.32;5.30;;;;;;;12.96;62.10;100110.34;5115752;27;20400;-76
2022/05/20 01:08:15;;;;;;;12.93;5.68;;;;;;;12.90;62.78;100103.50;5115938;27;20094;-76
2022/05/20 01:10:44;;;;;;;12.95;5.35;;;;;;;12.80;63.17;100096.88;5116324;27;20047;-75
2022/05/20 01:13:13;;;;;;;12.32;5.40;;;;;;;12.81;62.87;100102.22;5115720;28;20055;-76
2022/05/20 01:15:41;;;;;;;16.48;5.88;;;;;;;12.82;62.39;100105.78;5115685;27;20105;-75
2022/05/20 01:18:09;;;;;;;16.20;5.13;;;;;;;12.76;62.69;100107.03;5115252;27;20424;-75
2022/05/20 01:20:40;;;;;;;14.30;6.03;;;;;;;12.69;62.93;100106.53;5115660;27;20078;-75
2022/05/20 01:23:11;;;;;;;12.02;5.18;;;;;;;13.00;62.25;100109.19;5116901;27;20050;-75
2022/05/20 01:25:42;;;;;;;14.57;6.10;;;;;;;12.79;62.56;100096.00;5117543;27;20040;-75
2022/05/20 01:28:10;;;;;;;13.38;5.40;;;;;;;12.68;62.93;100099.38;5115957;27;20553;-75
2022/05/20 01:30:41;;;;;;;11.02;5.18;;;;;;;12.68;62.54;100098.53;5115579;27;20104;-75
2022/05/20 01:33:10;;;;;;;13.20;5.88;;;;;;;12.75;62.59;100105.31;5114666;27;20040;-75
2022/05/20 01:35:42;;;;;;;14.00;6.43;;;;;;;12.87;61.40;100098.25;5115132;28;20050;-75
2022/05/20 01:38:12;;;;;;;14.80;6.05;;;;;;;12.94;61.00;100102.31;5115645;27;20043;-75
2022/05/20 01:40:44;;;;;;;13.73;5.80;;;;;;;12.99;60.54;100100.19;5116164;27;20044;-75
2022/05/20 01:43:16;;;;;;;15.52;5.75;;;;;;;12.98;60.02;100106.59;5116082;27;20044;-75
2022/05/20 01:45:48;;;;;;;13.82;6.05;;;;;;;12.98;60.75;100095.75;5116730;27;20043;-75
2022/05/20 01:48:21;;;;;;;14.77;5.88;;;;;;;12.86;60.76;100096.53;5114749;28;20038;-75
2022/05/20 01:50:51;;;;;;;13.07;5.47;;;;;;;12.80;59.81;100084.19;5114738;28;20052;-75
2022/05/20 01:53:26;;;;;;;14.85;5.80;;;;;;;12.81;60.17;100082.34;5114796;28;20051;-75
2022/05/20 01:55:58;;;;;;;14.02;6.07;;;;;;;12.82;60.21;100082.28;5116177;27;20044;-75
2022/05/20 01:58:29;;;;;;;13.98;5.75;;;;;;;12.73;60.33;100081.00;5116469;27;20233;-75
2022/05/20 02:01:01;;;;;;;13.75;5.45;;;;;;;12.83;60.42;100089.44;5116409;27;20047;-75
2022/05/20 02:03:33;;;;;;;13.25;5.47;;;;;;;12.74;60.63;100071.03;5115107;27;20051;-75
2022/05/20 02:06:05;;;;;;;13.60;5.80;;;;;;;12.75;59.97;100067.34;5095173;28;20040;-75
2022/05/20 02:08:37;;;;;;;15.40;5.82;;;;;;;12.73;60.07;100070.16;5095472;28;20460;-76
2022/05/20 02:11:07;;;;;;;13.38;5.57;;;;;;;12.78;60.35;100071.69;5096091;28;20055;-75
2022/05/20 02:13:37;;;;;;;14.10;5.53;;;;;;;12.92;60.36;100076.28;5094254;28;20513;-75
2022/05/20 02:16:08;;;;;;;13.30;5.70;;;;;;;12.88;60.49;100072.91;5093838;28;20043;-75
2022/05/20 02:18:39;;;;;;;19.33;5.60;;;;;;;12.81;60.00;100063.38;5099625;28;20047;-75
2022/05/20 02:21:10;;;;;;;13.80;5.95;;;;;;;12.98;59.45;100065.91;5115957;27;20043;-75
2022/05/20 02:23:42;;;;;;;12.77;5.32;;;;;;;12.89;59.60;100063.78;5116432;27;20052;-76
2022/05/20 02:26:12;;;;;;;13.50;5.25;;;;;;;12.94;59.55;100061.66;5115024;28;20050;-75
2022/05/20 02:28:42;;;;;;;16.38;5.43;;;;;;;12.95;59.42;100057.09;5114045;27;20048;-75
2022/05/20 02:31:14;;;;;;;10.93;4.75;;;;;;;12.93;59.76;100049.06;5114990;27;20053;-76
2022/05/20 02:33:42;;;;;;;14.63;4.97;;;;;;;12.98;59.60;100036.09;5115879;28;20043;-75
2022/05/20 02:36:17;;;;;;;12.85;5.28;;;;;;;12.97;59.78;100047.91;5114017;28;20047;-75
2022/05/20 02:38:46;;;;;;;15.32;5.63;;;;;;;12.89;60.61;100050.25;5115189;27;20048;-75
2022/05/20 02:41:13;;;;;;;12.02;5.00;;;;;;;12.88;60.81;100057.47;5114148;27;20477;-76
2022/05/20 02:43:41;;;;;;;13.32;5.13;;;;;;;12.87;59.34;100054.88;5114281;27;20035;-75
2022/05/20 02:46:09;;;;;;;13.10;5.38;;;;;;;12.94;60.19;100048.09;5113100;27;20051;-75
2022/05/20 02:48:37;;;;;;;11.35;5.03;;;;;;;12.93;61.53;100046.38;5114020;27;20048;-75
2022/05/20 02:51:05;;;;;;;14.52;5.18;;;;;;;12.94;60.96;100048.09;5113939;27;20493;-75
2022/05/20 02:53:32;;;;;;;10.63;4.78;;;;;;;12.91;60.63;100051.00;5113981;27;20047;-76
2022/05/20 02:56:03;;;;;;;10.95;5.25;;;;;;;12.86;61.17;100048.56;5113935;27;20043;-75
2022/05/20 03:04:13;;;;;;;12.00;5.65;;;;;;;12.84;60.49;100039.69;5114300;28;20043;-75
2022/05/20 03:06:43;;;;;;;10.70;5.10;;;;;;;12.82;61.92;100040.72;5114225;27;20051;-75
2022/05/20 03:09:12;;;;;;;11.30;5.07;;;;;;;12.94;60.37;100039.09;5113726;27;20051;-75
2022/05/20 03:11:41;;;;;;;11.13;4.88;;;;;;;12.96;61.11;100043.47;5113727;28;20094;-75
2022/05/20 03:14:11;;;;;;;13.50;5.05;;;;;;;13.08;60.29;100040.94;5113162;27;20043;-75
2022/05/20 03:16:39;;;;;;;12.23;5.07;;;;;;;13.09;60.35;100039.97;5113724;27;20100;-75
2022/05/20 03:19:07;;;;;;;11.50;4.90;;;;;;;13.03;59.87;100041.22;5113622;28;20070;-75
2022/05/20 03:21:35;;;;;;;12.05;4.97;;;;;;;12.99;60.51;100042.38;5113734;27;20044;-75
2022/05/20 03:24:03;;;;;;;11.27;4.75;;;;;;;13.01;60.32;100052.16;5113677;27;20114;-75
2022/05/20 03:26:31;;;;;;;11.30;4.82;;;;;;;12.99;60.42;100053.22;5113601;28;20040;-75
2022/05/20 03:29:02;;;;;;;11.98;5.15;;;;;;;13.03;61.25;100061.06;5113046;27;20043;-75
2022/05/20 03:31:30;;;;;;;10.48;4.90;;;;;;;13.06;62.35;100060.03;5113895;27;20054;-75
2022/05/20 03:33:57;;;;;;;13.35;5.00;;;;;;;13.09;62.12;100054.41;5113469;27;20051;-75
2022/05/20 03:36:25;;;;;;;12.07;4.95;;;;;;;13.07;62.22;100050.91;5113503;27;20077;-76
2022/05/20 03:38:52;;;;;;;10.48;5.05;;;;;;;13.12;61.81;100042.47;5112995;28;20047;-75
2022/05/20 03:41:20;;;;;;;11.23;4.97;;;;;;;13.20;61.25;100040.13;5113426;27;20485;-75
2022/05/20 03:43:48;;;;;;;11.50;5.15;;;;;;;13.19;60.61;100038.38;5113114;27;20513;-76
2022/05/20 03:46:17;;;;;;;12.07;4.88;;;;;;;13.26;61.43;100037.06;5113518;27;20047;-76
2022/05/20 03:48:44;;;;;;;15.23;5.00;;;;;;;13.27;60.50;100035.19;5113403;27;20047;-75
2022/05/20 03:51:13;;;;;;;12.25;4.78;;;;;;;13.36;60.40;100031.03;5113396;27;20500;-76
2022/05/20 03:53:41;;;;;;;12.63;5.40;;;;;;;13.38;60.88;100032.66;5113355;27;20047;-75
2022/05/20 03:56:09;;;;;;;14.40;5.10;;;;;;;13.41;61.07;100037.00;5114514;27;20054;-75
2022/05/20 03:58:37;;;;;;;11.55;5.15;;;;;;;13.45;60.70;100028.59;5116995;27;20043;-76
2022/05/20 04:03:53;;;;;;;11.60;4.68;;;;;;;13.72;60.60;100018.75;5117902;28;20044;-75
2022/05/20 04:06:21;;;;;;;11.93;4.75;;;;;;;13.74;59.58;100017.66;5116704;28;20485;-75
2022/05/20 04:08:48;;;;;;;11.95;4.32;;;;;;;13.88;59.85;100015.88;5116976;27;20051;-75
2022/05/20 04:11:16;;;;;;;16.08;4.85;;;;;;;13.96;59.02;100005.38;5116666;27;20043;-75
2022/05/20 04:13:44;;;;;;;11.68;4.68;;;;;;;14.01;58.57;100003.19;5117071;27;20127;-75
2022/05/20 04:16:14;;;;;;;11.95;4.43;;;;;;;14.11;58.73;100000.75;5116880;27;20040;-75
2022/05/20 04:18:42;;;;;;;13.20;4.82;;;;;;;14.20;58.37;99991.06;5116557;27;20036;-76
2022/05/20 04:21:13;;;;;;;14.45;4.85;;;;;;;14.43;57.88;99992.16;5116791;27;20492;-75
2022/05/20 04:23:41;;;;;;;11.73;4.60;;;;;;;14.40;57.15;99978.81;5118720;28;20051;-75
2022/05/20 04:26:08;;;;;;;10.88;4.43;;;;;;;14.52;57.64;99987.09;5115094;27;20122;-75
2022/05/20 04:28:36;;;;;;;12.18;4.80;;;;;;;14.50;57.25;99987.19;5112916;27;20447;-76
2022/05/20 04:31:05;;;;;;;12.75;5.10;;;;;;;14.54;57.75;99985.97;5112630;27;20047;-76
2022/05/20 04:33:33;;;;;;;10.57;4.40;;;;;;;14.54;56.73;99994.13;5112863;27;20039;-76
2022/05/20 04:36:00;;;;;;;14.07;4.50;;;;;;;14.65;56.66;100001.53;5113059;27;20404;-75
2022/05/20 04:38:31;;;;;;;13.05;4.78;;;;;;;14.51;56.92;99998.94;5112805;27;20039;-75
2022/05/20 04:49:13;;;;;;;21.30;6.80;;;;;;;14.73;59.16;99996.44;5093235;28;20048;-76
2022/05/20 04:51:41;;;;;;;18.05;5.97;;;;;;;14.89;58.56;100006.22;5093642;28;20496;-76
2022/05/20 04:56:56;;;;;;;11.70;4.53;;;;;;;15.02;59.30;100007.09;5092119;28;20109;-74
2022/05/20 04:59:24;;;;;;;12.98;4.35;;;;;;;15.07;59.45;100012.19;5092044;28;20144;-78
2022/05/20 05:01:52;;;;;;;10.48;4.50;;;;;;;15.22;57.96;100021.06;5091888;28;20127;-77
2022/05/20 05:04:21;;;;;;;10.73;4.38;;;;;;;15.28;58.55;100014.31;5091969;28;20040;-77
2022/05/20 05:06:48;;;;;;;9.32;4.10;;;;;;;15.29;58.34;100013.34;5095041;28;20052;-76
2022/05/20 05:09:17;;;;;;;10.80;4.20;;;;;;;15.30;58.37;100013.25;5110762;27;20097;-76
2022/05/20 05:11:45;;;;;;;14.93;4.20;;;;;;;15.38;57.26;100009.09;5112210;27;20048;-76
2022/05/20 05:14:14;;;;;;;9.98;3.85;;;;;;;15.44;57.02;100003.19;5112138;27;20051;-75
2022/05/20 05:16:43;;;;;;;15.95;4.60;;;;;;;15.54;56.46;100012.38;5114251;27;20047;-76
2022/05/20 05:19:11;;;;;;;24.65;14.27;;;;;;;15.53;56.58;100005.22;5115518;27;20480;-75
2022/05/20 05:21:39;;;;;;;20.05;8.45;;;;;;;15.49;56.19;99995.53;5115606;27;20504;-76
2022/05/20 05:24:07;;;;;;;13.10;4.68;;;;;;;15.56;56.86;99991.38;5114832;27;20048;-75
2022/05/20 05:26:37;;;;;;;11.50;4.05;;;;;;;15.69;56.66;99988.59;5114735;27;20093;-76
2022/05/20 05:29:05;;;;;;;8.13;3.63;;;;;;;15.71;56.75;99991.22;5115323;27;20048;-75
2022/05/20 05:31:33;;;;;;;12.00;4.03;;;;;;;15.75;56.37;99990.00;5115206;28;20101;-75
2022/05/20 05:34:00;;;;;;;10.07;3.90;;;;;;;15.83;56.48;99987.56;5115313;27;20051;-75
2022/05/20 05:36:28;;;;;;;11.68;3.83;;;;;;;15.86;55.56;99991.88;5115628;28;20058;-75
2022/05/20 05:38:55;;;;;;;11.35;3.90;;;;;;;15.83;55.35;99987.56;5115071;27;20419;-75
2022/05/20 05:41:23;;;;;;;9.32;3.70;;;;;;;15.93;55.19;99994.06;5115311;27;20040;-75
2022/05/20 05:43:52;;;;;;;10.55;3.80;;;;;;;15.90;55.31;99994.31;5115205;27;20044;-75
2022/05/20 05:46:20;;;;;;;11.13;4.00;;;;;;;16.01;54.36;99989.88;5115180;27;20044;-76
2022/05/20 05:48:47;;;;;;;9.82;3.70;;;;;;;16.07;53.73;99984.84;5115159;27;20492;-75
2022/05/20 05:51:15;;;;;;;10.55;3.90;;;;;;;16.12;54.21;99970.88;5114984;28;20124;-76
2022/05/20 05:53:42;;;;;;;8.13;3.45;;;;;;;16.14;53.75;99973.47;5114722;27;20039;-76
2022/05/20 05:56:10;;;;;;;9.70;4.03;;;;;;;16.16;53.38;99974.19;5114949;27;20423;-75
2022/05/20 05:58:38;;;;;;;10.13;4.03;;;;;;;16.21;54.48;99980.16;5114192;27;20052;-74
2022/05/20 06:01:07;;;;;;;11.10;4.45;;;;;;;16.26;53.88;99979.81;5111063;27;20198;-75
2022/05/20 06:03:35;;;;;;;9.20;3.72;;;;;;;-147.76;100.00;60361.69;5111182;27;20112;-75
2022/05/20 06:06:02;;;;;;;10.25;3.80;;;;;;;-147.76;100.00;60361.69;5111219;27;20048;-76
2022/05/20 06:08:30;;;;;;;12.00;3.80;;;;;;;16.41;54.61;99970.41;5110631;27;20452;-76
2022/05/20 06:10:57;;;;;;;11.52;4.18;;;;;;;16.45;54.77;99960.16;5111069;28;20048;-75
2022/05/20 06:13:26;;;;;;;11.18;3.70;;;;;;;16.55;54.33;99958.41;5111298;28;20048;-75
2022/05/20 06:15:55;;;;;;;9.68;3.78;;;;;;;16.63;53.34;99960.53;5110454;28;20058;-75
2022/05/20 06:18:25;;;;;;;11.15;4.10;;;;;;;16.60;53.42;99966.25;5110800;28;20051;-75
2022/05/20 06:20:52;;;;;;;9.85;3.70;;;;;;;16.66;53.62;99961.16;5109890;27;20051;-75
2022/05/20 06:23:20;;;;;;;12.93;3.95;;;;;;;16.74;53.57;99954.25;5110485;27;20043;-75
2022/05/20 06:25:48;;;;;;;12.10;3.60;;;;;;;16.76;53.79;99953.09;5110901;27;20048;-75
2022/05/20 06:28:17;;;;;;;10.38;3.65;;;;;;;16.91;53.21;99951.00;5110363;27;20043;-76
2022/05/20 06:30:45;;;;;;;8.63;3.42;;;;;;;16.92;53.69;99958.19;5110566;27;20493;-76
2022/05/20 06:33:13;;;;;;;8.25;3.38;;;;;;;16.98;53.28;99945.94;5110688;28;20058;-73
2022/05/20 06:41:12;;;;;;;7.80;3.22;;;;;;;17.22;53.67;99947.63;5110828;28;20047;-73
2022/05/20 06:43:40;;;;;;;11.63;3.50;;;;;;;17.23;53.04;99946.63;5110612;27;20118;-74
2022/05/20 06:46:10;;;;;;;7.68;3.10;;;;;;;17.28;53.00;99941.66;5110271;28;20063;-75
2022/05/20 06:48:42;;;;;;;9.63;3.80;;;;;;;17.34;52.62;99930.25;5110791;27;20082;-77
2022/05/20 06:51:12;;;;;;;8.48;3.42;;;;;;;17.50;51.84;99929.81;5110671;27;20130;-77
2022/05/20 06:53:40;;;;;;;9.18;3.30;;;;;;;17.48;52.77;99933.69;5111620;28;20055;-77
2022/05/20 06:56:08;;;;;;;8.07;3.47;;;;;;;17.52;52.47;99922.34;5110326;28;20558;-77
2022/05/20 06:58:35;;;;;;;8.32;3.30;;;;;;;17.66;52.40;99921.19;5110289;27;20512;-77
2022/05/20 07:01:04;;;;;;;12.05;3.55;;;;;;;17.87;52.42;99917.63;5110465;27;20100;-77
2022/05/20 07:03:32;;;;;;;9.25;3.50;;;;;;;17.83;52.83;99921.63;5109877;27;20109;-73
2022/05/20 07:05:59;;;;;;;9.57;4.13;;;;;;;17.92;52.59;99918.09;5111872;27;20044;-78
2022/05/20 07:08:28;;;;;;;12.30;3.35;;;;;;;17.88;52.25;99922.09;5113395;27;20049;-77
2022/05/20 07:10:56;;;;;;;11.98;3.20;;;;;;;17.92;51.38;99901.72;5113477;28;20055;-77
2022/05/20 07:13:23;;;;;;;9.25;3.28;;;;;;;18.02;51.44;99912.75;5113622;28;20047;-77
2022/05/20 07:15:51;;;;;;;9.18;3.10;;;;;;;18.14;51.47;99905.31;5113730;28;20044;-77
2022/05/20 07:18:18;;;;;;;9.07;3.35;;;;;;;18.19;51.96;99922.22;5113411;28;20108;-77
2022/05/20 07:20:46;;;;;;;9.10;3.20;;;;;;;18.19;51.90;99919.47;5113343;27;20039;-77
2022/05/20 07:23:14;;;;;;;9.85;3.53;;;;;;;18.26;52.06;99914.31;5113603;27;20088;-78
2022/05/20 07:25:43;;;;;;;9.07;3.50;;;;;;;18.36;51.72;99914.41;5113705;27;20051;-77
2022/05/20 07:28:10;;;;;;;9.90;3.13;;;;;;;18.45;51.11;99910.00;5113577;27;20051;-77
2022/05/20 07:30:38;;;;;;;6.93;3.00;;;;;;;18.42;51.57;99911.13;5113796;27;20040;-78
2022/05/20 07:33:06;;;;;;;10.73;3.17;;;;;;;18.38;50.51;99912.38;5117982;27;20051;-77
2022/05/20 07:35:35;;;;;;;11.40;3.20;;;;;;;18.39;49.57;99904.06;5117501;27;20051;-77
2022/05/20 07:38:03;;;;;;;13.43;3.30;;;;;;;18.37;49.90;99900.59;5117634;27;20047;-77
2022/05/20 07:40:31;;;;;;;8.32;3.20;;;;;;;18.42;50.67;99902.06;5117480;28;20047;-77
2022/05/20 07:43:00;;;;;;;15.18;3.03;;;;;;;18.53;51.34;99902.81;5117441;27;20424;-77
2022/05/20 07:45:27;;;;;;;8.40;2.80;;;;;;;18.67;51.48;99895.25;5117561;27;20054;-77
2022/05/20 07:47:55;;;;;;;6.38;2.92;;;;;;;18.82;51.48;99896.59;5117619;27;20043;-77
2022/05/20 07:50:23;;;;;;;11.95;3.15;;;;;;;18.96;51.35;99891.75;5117044;27;20055;-77
2022/05/20 07:55:39;;;;;;;7.78;3.10;;;;;;;19.09;49.89;99892.41;5117474;28;20480;-78
2022/05/20 07:58:12;;;;;;;6.30;2.70;;;;;;;19.18;48.85;99898.03;5117311;27;20096;-78
2022/05/20 08:00:40;;;;;;;12.75;3.10;;;;;;;19.01;49.14;99903.19;5118084;27;20093;-78
2022/05/20 08:03:08;;;;;;;11.07;3.33;;;;;;;19.02;49.84;99899.44;5116893;28;20044;-78
2022/05/20 08:05:35;;;;;;;9.10;3.28;;;;;;;19.08;50.62;99904.34;5117256;27;20044;-78
2022/05/20 08:08:06;;;;;;;9.38;3.20;;;;;;;19.09;49.92;99902.47;5117155;27;20040;-78
2022/05/20 08:10:36;;;;;;;11.60;3.10;;;;;;;19.19;49.41;99884.22;5118092;27;20115;-77
2022/05/20 08:13:03;;;;;;;14.27;3.30;;;;;;;19.24;49.78;99887.41;5116900;27;20201;-78
2022/05/20 08:15:34;;;;;;;9.80;3.25;;;;;;;19.27;49.54;99886.22;5116925;27;20122;-77
2022/05/20 08:18:01;;;;;;;8.23;3.22;;;;;;;19.24;48.96;99892.00;5117083;27;20050;-77
2022/05/20 08:20:30;;;;;;;9.25;3.20;;;;;;;19.26;49.86;99884.50;5096461;28;20382;-77
2022/05/20 08:22:58;;;;;;;8.57;3.10;;;;;;;19.24;49.74;99884.66;5096399;28;20047;-77
2022/05/20 08:25:27;;;;;;;10.32;2.92;;;;;;;19.17;49.75;99866.19;5096348;28;20078;-77
2022/05/20 08:27:54;;;;;;;9.35;3.28;;;;;;;19.22;49.84;99874.84;5096318;28;20036;-77
2022/05/20 08:30:23;;;;;;;10.15;3.22;;;;;;;19.21;49.94;99870.38;5096268;28;20048;-77
2022/05/20 08:32:53;;;;;;;9.77;3.10;;;;;;;19.30;49.87;99875.00;5095732;28;20550;-77
2022/05/20 08:35:21;;;;;;;8.38;3.30;;;;;;;19.52;50.59;99878.47;5096367;28;20048;-77
2022/05/20 08:37:49;;;;;;;11.80;3.25;;;;;;;19.80;49.51;99864.94;5096269;28;20044;-77
2022/05/20 08:40:20;;;;;;;12.43;3.50;;;;;;;19.72;48.80;99867.50;5096205;28;20443;-77
2022/05/20 08:42:49;;;;;;;10.32;3.28;;;;;;;19.76;49.77;99871.69;5109470;28;20067;-79
2022/05/20 08:45:19;;;;;;;13.77;3.17;;;;;;;19.83;49.81;99856.41;5115948;28;20044;-74
2022/05/20 08:47:47;;;;;;;10.75;3.20;;;;;;;19.80;48.91;99856.72;5117620;28;20484;-74
2022/05/20 08:50:20;;;;;;;12.80;3.15;;;;;;;19.87;48.92;99857.84;5113504;27;20162;-74
2022/05/20 08:52:49;;;;;;;9.60;3.50;;;;;;;19.95;48.49;99863.47;5112547;28;20047;-74
2022/05/20 08:55:16;;;;;;;9.43;3.22;;;;;;;19.91;49.22;99856.56;5111935;28;20047;-73
2022/05/20 08:57:47;;;;;;;13.35;3.10;;;;;;;19.99;49.23;99864.06;5112318;27;20043;-73
2022/05/20 09:00:16;;;;;;;10.18;3.60;;;;;;;20.07;49.16;99857.81;5112688;27;20044;-73
2022/05/20 09:02:43;;;;;;;10.20;3.80;;;;;;;20.05;47.99;99858.00;5111475;27;20417;-73
2022/05/20 09:05:20;;;;;;;11.38;3.80;;;;;;;20.09;48.16;99851.19;5102531;28;20043;-74
2022/05/20 09:08:03;;;;;;;9.65;4.00;;;;;;;20.09;47.91;99844.84;5112659;27;20405;-74
2022/05/20 09:10:38;;;;;;;8.63;3.40;;;;;;;20.06;48.08;99853.34;5112709;27;20488;-74
2022/05/20 09:13:14;;;;;;;13.25;5.43;;;;;;;20.08;48.53;99851.31;5113541;28;20054;-73
2022/05/20 09:15:44;;;;;;;8.90;3.50;;;;;;;20.06;48.43;99834.16;5113202;27;20292;-74
2022/05/20 09:18:20;;;;;;;11.88;3.67;;;;;;;20.06;48.83;99831.44;5111156;27;20504;-74
2022/05/20 09:20:50;;;;;;;;;;;;;;;20.08;49.01;99827.53;5112564;27;20040;-74
2022/05/20 09:23:20;;;;;;;15.35;4.60;;;;;;;20.17;50.09;99825.75;5112126;28;20001;-74
2022/05/20 09:25:50;;;;;;;44.17;23.63;;;;;;;20.25;48.88;99822.28;5111211;27;20044;-74
2022/05/20 09:28:26;;;;;;;18.85;6.50;;;;;;;20.33;48.28;99827.88;5113542;27;20105;-74
2022/05/20 09:30:56;;;;;;;15.73;6.22;;;;;;;20.32;48.82;99833.53;5094399;28;20067;-73
2022/05/20 09:33:26;;;;;;;17.80;7.82;;;;;;;20.37;49.00;99834.78;5112782;27;20051;-74
2022/05/20 09:35:58;;;;;;;10.10;3.55;;;;;;;20.43;48.65;99833.31;5111461;27;20048;-74
2022/05/20 09:38:35;;;;;;;10.48;3.45;;;;;;;20.48;50.34;99825.50;5113286;27;20040;-74
2022/05/20 09:41:14;;;;;;;8.43;3.10;;;;;;;20.61;50.40;99830.63;5112596;28;20164;-74
2022/05/20 09:43:44;;;;;;;10.57;3.58;;;;;;;20.51;50.68;99825.19;5111965;28;20096;-74
2022/05/20 09:46:28;;;;;;;16.17;3.50;;;;;;;20.62;50.38;99828.78;5111089;27;20505;-75
2022/05/20 09:49:04;;;;;;;9.50;3.42;;;;;;;20.44;48.55;99829.56;5113146;27;20047;-75
2022/05/20 09:51:38;;;;;;;10.88;3.60;;;;;;;20.38;49.61;99824.69;5110934;28;20116;-74
2022/05/20 09:54:21;;;;;;;7.90;3.17;;;;;;;20.34;48.00;99817.78;5111425;27;20047;-73
2022/05/20 09:56:59;;;;;;;10.07;3.35;;;;;;;20.35;49.78;99819.50;5110680;28;20071;-75
2022/05/20 09:59:33;;;;;;;7.60;3.33;;;;;;;20.53;49.07;99805.84;5111459;27;20093;-75
2022/05/20 10:02:05;;;;;;;11.27;3.42;;;;;;;20.66;48.47;99813.75;5110902;28;20052;-75
2022/05/20 10:04:41;;;;;;;9.57;3.30;;;;;;;20.70;49.17;99806.94;5112286;27;20100;-75
2022/05/20 10:07:13;;;;;;;10.13;3.47;;;;;;;20.71;49.63;99803.16;5111583;28;20050;-75
2022/05/20 10:09:43;;;;;;;11.30;3.25;;;;;;;20.63;49.13;99803.06;5112515;27;20040;-75
2022/05/20 10:12:17;;;;;;;14.68;3.47;;;;;;;20.74;48.06;99793.75;5112171;27;20046;-75
2022/05/20 10:14:49;;;;;;;8.40;3.85;;;;;;;20.91;48.20;99800.31;5113562;27;20039;-75
2022/05/20 10:17:25;;;;;;;10.18;3.20;;;;;;;20.96;48.59;99796.09;5111995;28;20043;-75
2022/05/20 10:19:57;;;;;;;9.30;3.50;;;;;;;21.00;48.63;99796.63;5111888;28;20484;-76
2022/05/20 10:22:31;;;;;;;10.40;3.50;;;;;;;21.08;48.71;99794.00;5114315;27;20047;-76
2022/05/20 10:25:04;;;;;;;8.70;3.20;;;;;;;21.09;49.13;99792.97;5111451;28;20093;-76
2022/05/20 10:27:37;;;;;;;8.32;3.35;;;;;;;21.17;49.51;99791.31;5110579;28;20035;-75
2022/05/20 10:32:58;;;;;;;11.63;3.50;;;;;;;21.28;48.41;99782.84;5110626;28;20170;-77
2022/05/20 10:35:30;;;;;;;12.18;3.72;;;;;;;21.40;48.70;99784.31;5113394;27;20044;-74
2022/05/20 10:38:27;;;;;;;9.98;3.42;;;;;;;21.51;49.37;99774.13;5113557;27;20043;-72
2022/05/20 10:41:00;;;;;;;9.57;3.65;;;;;;;21.74;49.64;99781.88;5110385;28;20047;-74
2022/05/20 10:48:34;;;;;;;12.20;3.45;;;;;;;21.71;48.86;99772.91;5112024;28;20093;-73
2022/05/20 10:49:23;;;;;;;12.60;3.75;;;;;;;21.90;48.33;99764.63;5113048;28;20381;-71
2022/05/20 10:52:01;;;;;;;9.27;3.97;;;;;;;22.06;48.53;99772.13;5111664;28;20047;-72
2022/05/20 10:54:43;;;;;;;11.98;3.35;;;;;;;22.17;49.23;99758.06;5113691;27;20100;-73
2022/05/20 10:57:45;;;;;;;9.23;3.60;;;;;;;22.34;48.88;99763.66;5110303;28;20496;-73
2022/05/20 11:00:15;;;;;;;11.15;3.75;;;;;;;22.37;48.42;99760.59;5067589;28;20052;-74
2022/05/20 11:03:14;;;;;;;10.60;3.90;;;;;;;22.42;47.62;99763.69;5070875;28;20067;-73
2022/05/20 11:06:04;;;;;;;16.33;3.80;;;;;;;22.52;47.63;99761.69;5071311;28;20080;-74
2022/05/20 11:08:42;;;;;;;8.77;3.55;;;;;;;22.46;47.30;99743.09;5063870;28;20067;-73
2022/05/20 11:11:22;;;;;;;10.27;3.55;;;;;;;22.65;48.21;99743.88;5071096;28;20055;-72
2022/05/20 11:14:16;;;;;;;8.90;3.55;;;;;;;22.83;48.09;99751.97;5072612;28;20080;-72
2022/05/20 11:17:07;;;;;;;36.97;12.88;;;;;;;22.95;49.02;99738.75;5073248;28;20563;-72
2022/05/20 11:19:49;;;;;;;14.45;4.22;;;;;;;23.14;49.20;99741.19;5070357;28;20535;-72
2022/05/20 11:22:56;;;;;;;16.52;4.80;;;;;;;22.99;48.19;99738.25;5067676;28;20088;-71
2022/05/20 11:25:35;;;;;;;12.07;4.38;;;;;;;22.88;48.08;99740.47;5008713;28;20058;-73
2022/05/20 11:28:25;;;;;;;14.32;3.75;;;;;;;23.05;49.28;99730.34;5010938;28;20057;-72
2022/05/20 11:31:07;;;;;;;12.43;4.03;;;;;;;23.11;49.36;99726.91;5011101;28;20054;-72
2022/05/20 11:33:54;;;;;;;10.30;3.67;;;;;;;22.97;47.66;99728.44;4993727;28;20080;-72
2022/05/20 11:36:52;;;;;;;9.27;3.55;;;;;;;22.88;47.55;99723.94;5014735;28;20491;-73
2022/05/20 11:39:48;;;;;;;11.48;3.95;;;;;;;22.96;47.32;99722.06;4953452;29;20138;-73
2022/05/20 11:42:20;;;;;;;12.60;3.45;;;;;;;22.89;47.20;99714.66;4894888;29;20075;-72
2022/05/20 11:45:10;;;;;;;14.27;3.67;;;;;;;22.95;48.50;99708.47;4889964;29;20064;-73
2022/05/20 11:48:00;;;;;;;11.98;3.70;;;;;;;23.04;48.36;99710.19;4898616;29;20580;-73
2022/05/20 11:50:47;;;;;;;17.13;3.90;;;;;;;22.91;45.87;99702.47;4893909;29;20558;-73
2022/05/20 11:53:20;;;;;;;10.13;4.80;;;;;;;23.24;46.38;99702.47;4895317;29;20464;-73
2022/05/20 11:55:52;;;;;;;10.50;3.58;;;;;;;23.31;47.06;99707.31;4896708;29;20521;-73
2022/05/20 11:58:25;;;;;;;10.02;3.95;;;;;;;23.12;48.74;99703.84;4897075;29;20052;-79
2022/05/20 12:00:55;;;;;;;11.60;3.42;;;;;;;23.04;48.95;99706.59;4933840;28;20066;-78
2022/05/20 12:03:26;;;;;;;12.98;3.40;;;;;;;23.10;48.57;99695.75;4986141;28;20048;-78
2022/05/20 12:05:54;;;;;;;12.52;4.25;;;;;;;23.29;49.04;99700.09;4987359;28;20471;-78
2022/05/20 12:08:55;;;;;;;19.70;3.50;;;;;;;23.40;48.37;99696.09;4986761;28;20050;-77
2022/05/20 12:11:26;;;;;;;9.82;3.42;;;;;;;23.41;48.62;99689.56;4909931;29;20445;-77
2022/05/20 12:14:05;;;;;;;11.75;3.60;;;;;;;23.42;48.42;99684.91;4909867;29;20044;-79
2022/05/20 12:16:36;;;;;;;11.70;3.30;;;;;;;23.42;47.75;99690.44;4934073;28;20114;-78
2022/05/20 12:24:39;;;;;;;11.60;3.60;;;;;;;23.63;47.78;99672.47;5029179;28;20128;-78